sensor_id;sensor_type;location;lat;lon;timestamp;temperature;humidity
1700;DHT22;847;48.058;7.810;2023-06-14T00:02:16;18.10;67.10
1700;DHT22;847;48.058;7.810;2023-06-14T00:04:43;18.10;67.30
1700;DHT22;847;48.058;7.810;2023-06-14T00:07:09;18.10;67.10
1700;DHT22;847;48.058;7.810;2023-06-14T00:09:40;18.00;67.30
1700;DHT22;847;48.058;7.810;2023-06-14T00:12:07;17.90;67.40
1700;DHT22;847;48.058;7.810;2023-06-14T00:14:34;17.80;67.40
1700;DHT22;847;48.058;7.810;2023-06-14T00:17:01;17.70;67.80
1700;DHT22;847;48.058;7.810;2023-06-14T00:19:28;17.70;67.80
1700;DHT22;847;48.058;7.810;2023-06-14T00:21:56;17.80;68.00
1700;DHT22;847;48.058;7.810;2023-06-14T00:24:23;17.80;67.60
1700;DHT22;847;48.058;7.810;2023-06-14T00:26:51;17.90;67.00
1700;DHT22;847;48.058;7.810;2023-06-14T00:29:17;17.90;66.80
1700;DHT22;847;48.058;7.810;2023-06-14T00:31:44;17.60;67.50
1700;DHT22;847;48.058;7.810;2023-06-14T00:34:11;17.50;67.60
1700;DHT22;847;48.058;7.810;2023-06-14T00:36:37;17.40;67.50
1700;DHT22;847;48.058;7.810;2023-06-14T00:39:04;17.20;67.40
1700;DHT22;847;48.058;7.810;2023-06-14T00:41:31;17.00;68.30
1700;DHT22;847;48.058;7.810;2023-06-14T00:43:59;17.20;67.60
1700;DHT22;847;48.058;7.810;2023-06-14T00:46:26;17.20;67.60
1700;DHT22;847;48.058;7.810;2023-06-14T00:48:53;17.30;67.40
1700;DHT22;847;48.058;7.810;2023-06-14T00:51:21;17.00;67.50
1700;DHT22;847;48.058;7.810;2023-06-14T00:53:48;17.00;68.60
1700;DHT22;847;48.058;7.810;2023-06-14T00:56:16;17.30;67.40
1700;DHT22;847;48.058;7.810;2023-06-14T00:58:46;17.20;67.40
1700;DHT22;847;48.058;7.810;2023-06-14T01:01:14;17.10;67.50
1700;DHT22;847;48.058;7.810;2023-06-14T01:03:41;16.90;67.70
1700;DHT22;847;48.058;7.810;2023-06-14T01:06:16;16.70;68.90
1700;DHT22;847;48.058;7.810;2023-06-14T01:09:01;16.80;68.80
1700;DHT22;847;48.058;7.810;2023-06-14T01:11:32;16.90;68.30
1700;DHT22;847;48.058;7.810;2023-06-14T01:14:05;17.00;68.60
1700;DHT22;847;48.058;7.810;2023-06-14T01:16:34;17.00;68.30
1700;DHT22;847;48.058;7.810;2023-06-14T01:19:05;17.00;68.30
1700;DHT22;847;48.058;7.810;2023-06-14T01:21:37;17.10;68.00
1700;DHT22;847;48.058;7.810;2023-06-14T01:24:08;16.80;69.20
1700;DHT22;847;48.058;7.810;2023-06-14T01:26:36;16.50;69.60
1700;DHT22;847;48.058;7.810;2023-06-14T01:29:05;16.40;70.40
1700;DHT22;847;48.058;7.810;2023-06-14T01:31:32;16.60;69.90
1700;DHT22;847;48.058;7.810;2023-06-14T01:34:07;16.50;70.30
1700;DHT22;847;48.058;7.810;2023-06-14T01:36:36;16.50;70.10
1700;DHT22;847;48.058;7.810;2023-06-14T01:39:04;16.00;71.30
1700;DHT22;847;48.058;7.810;2023-06-14T01:41:34;16.20;71.60
1700;DHT22;847;48.058;7.810;2023-06-14T01:44:02;16.40;71.10
1700;DHT22;847;48.058;7.810;2023-06-14T01:46:29;16.30;71.10
1700;DHT22;847;48.058;7.810;2023-06-14T01:48:56;15.90;72.10
1700;DHT22;847;48.058;7.810;2023-06-14T01:51:23;15.70;72.60
1700;DHT22;847;48.058;7.810;2023-06-14T01:53:50;15.60;73.10
1700;DHT22;847;48.058;7.810;2023-06-14T01:56:17;15.50;73.40
1700;DHT22;847;48.058;7.810;2023-06-14T01:58:45;15.60;73.40
1700;DHT22;847;48.058;7.810;2023-06-14T02:01:12;15.50;73.90
1700;DHT22;847;48.058;7.810;2023-06-14T02:03:41;15.40;74.20
1700;DHT22;847;48.058;7.810;2023-06-14T02:06:07;15.20;74.50
1700;DHT22;847;48.058;7.810;2023-06-14T02:08:35;15.50;74.30
1700;DHT22;847;48.058;7.810;2023-06-14T02:11:02;15.50;74.00
1700;DHT22;847;48.058;7.810;2023-06-14T02:13:29;15.60;74.20
1700;DHT22;847;48.058;7.810;2023-06-14T02:15:57;15.60;73.80
1700;DHT22;847;48.058;7.810;2023-06-14T02:18:25;15.70;73.90
1700;DHT22;847;48.058;7.810;2023-06-14T02:20:52;15.70;73.50
1700;DHT22;847;48.058;7.810;2023-06-14T02:23:18;15.70;73.60
1700;DHT22;847;48.058;7.810;2023-06-14T02:25:45;15.70;73.10
1700;DHT22;847;48.058;7.810;2023-06-14T02:28:12;15.70;73.10
1700;DHT22;847;48.058;7.810;2023-06-14T02:30:39;15.70;73.10
1700;DHT22;847;48.058;7.810;2023-06-14T02:33:07;15.70;72.80
1700;DHT22;847;48.058;7.810;2023-06-14T02:35:37;15.70;73.10
1700;DHT22;847;48.058;7.810;2023-06-14T02:38:04;15.60;73.10
1700;DHT22;847;48.058;7.810;2023-06-14T02:40:30;15.60;72.90
1700;DHT22;847;48.058;7.810;2023-06-14T02:42:57;15.50;73.30
1700;DHT22;847;48.058;7.810;2023-06-14T02:45:24;15.30;73.70
1700;DHT22;847;48.058;7.810;2023-06-14T02:47:51;15.30;73.50
1700;DHT22;847;48.058;7.810;2023-06-14T02:50:19;15.20;73.80
1700;DHT22;847;48.058;7.810;2023-06-14T02:52:47;15.10;74.00
1700;DHT22;847;48.058;7.810;2023-06-14T02:55:13;15.10;74.00
1700;DHT22;847;48.058;7.810;2023-06-14T02:57:40;15.20;73.80
1700;DHT22;847;48.058;7.810;2023-06-14T03:00:08;15.20;74.00
1700;DHT22;847;48.058;7.810;2023-06-14T03:02:38;15.20;74.10
1700;DHT22;847;48.058;7.810;2023-06-14T03:05:06;15.20;74.00
1700;DHT22;847;48.058;7.810;2023-06-14T03:07:35;15.30;73.90
1700;DHT22;847;48.058;7.810;2023-06-14T03:10:07;15.30;73.60
1700;DHT22;847;48.058;7.810;2023-06-14T03:12:35;14.90;73.90
1700;DHT22;847;48.058;7.810;2023-06-14T03:15:02;14.90;74.30
1700;DHT22;847;48.058;7.810;2023-06-14T03:17:29;14.90;74.80
1700;DHT22;847;48.058;7.810;2023-06-14T03:19:58;14.90;74.60
1700;DHT22;847;48.058;7.810;2023-06-14T03:22:25;14.90;74.50
1700;DHT22;847;48.058;7.810;2023-06-14T03:24:53;14.80;74.70
1700;DHT22;847;48.058;7.810;2023-06-14T03:27:20;14.60;75.30
1700;DHT22;847;48.058;7.810;2023-06-14T03:29:47;14.80;75.10
1700;DHT22;847;48.058;7.810;2023-06-14T03:32:14;14.80;75.20
1700;DHT22;847;48.058;7.810;2023-06-14T03:34:40;14.80;75.10
1700;DHT22;847;48.058;7.810;2023-06-14T03:37:08;14.60;75.40
1700;DHT22;847;48.058;7.810;2023-06-14T03:39:34;14.60;75.10
1700;DHT22;847;48.058;7.810;2023-06-14T03:42:03;14.80;74.90
1700;DHT22;847;48.058;7.810;2023-06-14T03:44:30;14.80;74.60
1700;DHT22;847;48.058;7.810;2023-06-14T03:46:57;14.90;74.80
1700;DHT22;847;48.058;7.810;2023-06-14T03:49:24;14.80;74.20
1700;DHT22;847;48.058;7.810;2023-06-14T03:51:51;14.90;73.80
1700;DHT22;847;48.058;7.810;2023-06-14T03:54:17;14.80;73.80
1700;DHT22;847;48.058;7.810;2023-06-14T03:56:44;14.80;73.80
1700;DHT22;847;48.058;7.810;2023-06-14T03:59:13;14.80;73.10
1700;DHT22;847;48.058;7.810;2023-06-14T04:01:40;14.80;71.80
1700;DHT22;847;48.058;7.810;2023-06-14T04:04:12;14.80;71.50
1700;DHT22;847;48.058;7.810;2023-06-14T04:06:39;14.90;72.30
1700;DHT22;847;48.058;7.810;2023-06-14T04:09:07;15.00;71.10
1700;DHT22;847;48.058;7.810;2023-06-14T04:11:34;15.00;70.90
1700;DHT22;847;48.058;7.810;2023-06-14T04:14:01;15.00;70.70
1700;DHT22;847;48.058;7.810;2023-06-14T04:16:29;15.00;71.00
1700;DHT22;847;48.058;7.810;2023-06-14T04:18:56;15.20;71.10
1700;DHT22;847;48.058;7.810;2023-06-14T04:21:23;15.30;71.30
1700;DHT22;847;48.058;7.810;2023-06-14T04:23:51;15.30;71.80
1700;DHT22;847;48.058;7.810;2023-06-14T04:26:20;15.40;71.40
1700;DHT22;847;48.058;7.810;2023-06-14T04:28:49;15.50;72.90
1700;DHT22;847;48.058;7.810;2023-06-14T04:31:16;15.50;72.60
1700;DHT22;847;48.058;7.810;2023-06-14T04:33:44;15.60;71.60
1700;DHT22;847;48.058;7.810;2023-06-14T04:36:12;15.60;70.00
1700;DHT22;847;48.058;7.810;2023-06-14T04:38:39;15.60;70.40
1700;DHT22;847;48.058;7.810;2023-06-14T04:41:06;15.50;70.80
1700;DHT22;847;48.058;7.810;2023-06-14T04:43:37;15.50;69.70
1700;DHT22;847;48.058;7.810;2023-06-14T04:46:04;15.60;70.40
1700;DHT22;847;48.058;7.810;2023-06-14T04:48:36;15.70;70.40
1700;DHT22;847;48.058;7.810;2023-06-14T04:51:07;15.60;70.80
1700;DHT22;847;48.058;7.810;2023-06-14T04:53:35;15.60;72.90
1700;DHT22;847;48.058;7.810;2023-06-14T04:56:02;15.50;73.80
1700;DHT22;847;48.058;7.810;2023-06-14T04:58:29;15.60;73.60
1700;DHT22;847;48.058;7.810;2023-06-14T05:00:56;15.60;73.40
1700;DHT22;847;48.058;7.810;2023-06-14T05:03:24;15.70;73.50
1700;DHT22;847;48.058;7.810;2023-06-14T05:05:52;15.60;73.60
1700;DHT22;847;48.058;7.810;2023-06-14T05:08:20;15.60;73.40
1700;DHT22;847;48.058;7.810;2023-06-14T05:10:48;15.60;73.60
1700;DHT22;847;48.058;7.810;2023-06-14T05:13:15;15.60;73.20
1700;DHT22;847;48.058;7.810;2023-06-14T05:15:42;15.70;73.70
1700;DHT22;847;48.058;7.810;2023-06-14T05:18:09;15.70;74.00
1700;DHT22;847;48.058;7.810;2023-06-14T05:20:36;15.70;74.60
1700;DHT22;847;48.058;7.810;2023-06-14T05:23:03;15.80;74.80
1700;DHT22;847;48.058;7.810;2023-06-14T05:25:31;15.70;74.80
1700;DHT22;847;48.058;7.810;2023-06-14T05:27:58;15.70;75.90
1700;DHT22;847;48.058;7.810;2023-06-14T05:30:25;15.60;76.10
1700;DHT22;847;48.058;7.810;2023-06-14T05:32:52;15.60;77.20
1700;DHT22;847;48.058;7.810;2023-06-14T05:35:20;15.70;77.50
1700;DHT22;847;48.058;7.810;2023-06-14T05:37:48;15.70;78.00
1700;DHT22;847;48.058;7.810;2023-06-14T05:40:15;15.70;78.60
1700;DHT22;847;48.058;7.810;2023-06-14T05:42:44;15.80;78.80
1700;DHT22;847;48.058;7.810;2023-06-14T05:45:11;15.70;79.50
1700;DHT22;847;48.058;7.810;2023-06-14T05:47:38;15.80;79.40
1700;DHT22;847;48.058;7.810;2023-06-14T05:50:05;15.90;78.90
1700;DHT22;847;48.058;7.810;2023-06-14T05:52:33;16.00;79.40
1700;DHT22;847;48.058;7.810;2023-06-14T05:54:59;16.00;78.40
1700;DHT22;847;48.058;7.810;2023-06-14T05:57:26;16.00;79.50
1700;DHT22;847;48.058;7.810;2023-06-14T05:59:54;16.10;79.00
1700;DHT22;847;48.058;7.810;2023-06-14T06:02:21;16.10;78.90
1700;DHT22;847;48.058;7.810;2023-06-14T06:04:48;16.10;79.20
1700;DHT22;847;48.058;7.810;2023-06-14T06:07:14;16.10;79.10
1700;DHT22;847;48.058;7.810;2023-06-14T06:09:41;16.20;78.70
1700;DHT22;847;48.058;7.810;2023-06-14T06:12:08;16.20;78.20
1700;DHT22;847;48.058;7.810;2023-06-14T06:14:36;16.40;78.80
1700;DHT22;847;48.058;7.810;2023-06-14T06:17:05;16.50;78.30
1700;DHT22;847;48.058;7.810;2023-06-14T06:19:32;16.50;78.70
1700;DHT22;847;48.058;7.810;2023-06-14T06:21:58;16.50;79.30
1700;DHT22;847;48.058;7.810;2023-06-14T06:24:25;16.50;79.70
1700;DHT22;847;48.058;7.810;2023-06-14T06:26:52;16.50;79.30
1700;DHT22;847;48.058;7.810;2023-06-14T06:29:19;16.50;79.70
1700;DHT22;847;48.058;7.810;2023-06-14T06:31:46;16.70;79.60
1700;DHT22;847;48.058;7.810;2023-06-14T06:34:14;16.80;79.10
1700;DHT22;847;48.058;7.810;2023-06-14T06:36:40;16.90;77.40
1700;DHT22;847;48.058;7.810;2023-06-14T06:39:07;16.80;78.50
1700;DHT22;847;48.058;7.810;2023-06-14T06:41:35;16.90;77.50
1700;DHT22;847;48.058;7.810;2023-06-14T06:44:03;17.00;77.90
1700;DHT22;847;48.058;7.810;2023-06-14T06:46:30;17.00;79.00
1700;DHT22;847;48.058;7.810;2023-06-14T06:48:57;17.10;77.80
1700;DHT22;847;48.058;7.810;2023-06-14T06:51:25;17.10;77.70
1700;DHT22;847;48.058;7.810;2023-06-14T06:53:53;17.20;76.70
1700;DHT22;847;48.058;7.810;2023-06-14T06:56:20;17.40;77.80
1700;DHT22;847;48.058;7.810;2023-06-14T06:58:48;17.40;77.60
1700;DHT22;847;48.058;7.810;2023-06-14T07:01:15;17.50;76.80
1700;DHT22;847;48.058;7.810;2023-06-14T07:03:42;17.50;75.90
1700;DHT22;847;48.058;7.810;2023-06-14T07:06:09;17.60;75.40
1700;DHT22;847;48.058;7.810;2023-06-14T07:08:37;17.70;75.10
1700;DHT22;847;48.058;7.810;2023-06-14T07:11:05;17.80;74.30
1700;DHT22;847;48.058;7.810;2023-06-14T07:13:32;17.80;74.80
1700;DHT22;847;48.058;7.810;2023-06-14T07:16:00;17.90;75.30
1700;DHT22;847;48.058;7.810;2023-06-14T07:18:27;18.00;75.00
1700;DHT22;847;48.058;7.810;2023-06-14T07:20:54;18.10;73.30
1700;DHT22;847;48.058;7.810;2023-06-14T07:23:21;18.20;73.00
1700;DHT22;847;48.058;7.810;2023-06-14T07:25:49;18.20;74.30
1700;DHT22;847;48.058;7.810;2023-06-14T07:28:16;18.20;73.60
1700;DHT22;847;48.058;7.810;2023-06-14T07:30:43;18.20;73.10
1700;DHT22;847;48.058;7.810;2023-06-14T07:33:10;18.30;74.20
1700;DHT22;847;48.058;7.810;2023-06-14T07:35:37;18.30;74.30
1700;DHT22;847;48.058;7.810;2023-06-14T07:38:04;18.40;73.60
1700;DHT22;847;48.058;7.810;2023-06-14T07:40:31;18.50;72.70
1700;DHT22;847;48.058;7.810;2023-06-14T07:42:59;18.50;72.40
1700;DHT22;847;48.058;7.810;2023-06-14T07:45:27;18.70;72.30
1700;DHT22;847;48.058;7.810;2023-06-14T07:47:53;18.80;71.90
1700;DHT22;847;48.058;7.810;2023-06-14T07:50:20;18.80;71.40
1700;DHT22;847;48.058;7.810;2023-06-14T07:52:47;18.70;72.00
1700;DHT22;847;48.058;7.810;2023-06-14T07:55:14;18.70;71.90
1700;DHT22;847;48.058;7.810;2023-06-14T07:57:41;18.70;72.70
1700;DHT22;847;48.058;7.810;2023-06-14T08:00:12;19.00;73.70
1700;DHT22;847;48.058;7.810;2023-06-14T08:02:41;19.20;72.60
1700;DHT22;847;48.058;7.810;2023-06-14T08:05:09;19.20;72.40
1700;DHT22;847;48.058;7.810;2023-06-14T08:07:35;19.30;71.80
1700;DHT22;847;48.058;7.810;2023-06-14T08:10:02;19.40;72.80
1700;DHT22;847;48.058;7.810;2023-06-14T08:12:29;19.60;72.10
1700;DHT22;847;48.058;7.810;2023-06-14T08:14:56;19.70;70.90
1700;DHT22;847;48.058;7.810;2023-06-14T08:17:24;19.80;70.80
1700;DHT22;847;48.058;7.810;2023-06-14T08:19:51;19.90;69.30
1700;DHT22;847;48.058;7.810;2023-06-14T08:22:17;20.00;70.60
1700;DHT22;847;48.058;7.810;2023-06-14T08:24:45;20.10;69.40
1700;DHT22;847;48.058;7.810;2023-06-14T08:27:11;20.20;69.30
1700;DHT22;847;48.058;7.810;2023-06-14T08:29:38;20.30;68.60
1700;DHT22;847;48.058;7.810;2023-06-14T08:32:07;20.40;68.30
1700;DHT22;847;48.058;7.810;2023-06-14T08:34:35;20.50;66.50
1700;DHT22;847;48.058;7.810;2023-06-14T08:37:02;20.60;67.80
1700;DHT22;847;48.058;7.810;2023-06-14T08:39:28;20.70;67.20
1700;DHT22;847;48.058;7.810;2023-06-14T08:41:56;20.90;66.40
1700;DHT22;847;48.058;7.810;2023-06-14T08:44:23;21.00;65.80
1700;DHT22;847;48.058;7.810;2023-06-14T08:46:50;21.10;65.50
1700;DHT22;847;48.058;7.810;2023-06-14T08:49:19;21.10;65.10
1700;DHT22;847;48.058;7.810;2023-06-14T08:51:51;21.30;63.90
1700;DHT22;847;48.058;7.810;2023-06-14T08:54:20;21.30;65.00
1700;DHT22;847;48.058;7.810;2023-06-14T08:56:47;21.40;63.30
1700;DHT22;847;48.058;7.810;2023-06-14T08:59:14;21.50;63.50
1700;DHT22;847;48.058;7.810;2023-06-14T09:01:41;21.60;63.80
1700;DHT22;847;48.058;7.810;2023-06-14T09:04:08;21.90;64.20
1700;DHT22;847;48.058;7.810;2023-06-14T09:06:35;22.00;63.50
1700;DHT22;847;48.058;7.810;2023-06-14T09:09:04;22.00;62.10
1700;DHT22;847;48.058;7.810;2023-06-14T09:11:31;22.00;62.30
1700;DHT22;847;48.058;7.810;2023-06-14T09:13:57;22.10;62.00
1700;DHT22;847;48.058;7.810;2023-06-14T09:16:25;22.20;62.10
1700;DHT22;847;48.058;7.810;2023-06-14T09:18:52;22.30;61.80
1700;DHT22;847;48.058;7.810;2023-06-14T09:21:20;22.40;62.90
1700;DHT22;847;48.058;7.810;2023-06-14T09:23:47;22.50;62.60
1700;DHT22;847;48.058;7.810;2023-06-14T09:26:17;22.70;62.30
1700;DHT22;847;48.058;7.810;2023-06-14T09:28:45;22.80;61.30
1700;DHT22;847;48.058;7.810;2023-06-14T09:31:13;22.90;61.40
1700;DHT22;847;48.058;7.810;2023-06-14T09:33:42;22.90;60.10
1700;DHT22;847;48.058;7.810;2023-06-14T09:36:14;23.00;60.00
1700;DHT22;847;48.058;7.810;2023-06-14T09:38:43;23.00;59.80
1700;DHT22;847;48.058;7.810;2023-06-14T09:41:19;23.00;59.90
1700;DHT22;847;48.058;7.810;2023-06-14T09:43:46;23.10;60.20
1700;DHT22;847;48.058;7.810;2023-06-14T09:46:13;23.10;60.20
1700;DHT22;847;48.058;7.810;2023-06-14T09:48:41;23.20;61.40
1700;DHT22;847;48.058;7.810;2023-06-14T09:51:09;23.30;60.00
1700;DHT22;847;48.058;7.810;2023-06-14T09:53:37;23.30;59.20
1700;DHT22;847;48.058;7.810;2023-06-14T09:56:05;23.40;59.60
1700;DHT22;847;48.058;7.810;2023-06-14T09:58:35;23.40;58.90
1700;DHT22;847;48.058;7.810;2023-06-14T10:01:08;23.50;61.00
1700;DHT22;847;48.058;7.810;2023-06-14T10:03:36;23.50;60.50
1700;DHT22;847;48.058;7.810;2023-06-14T10:06:05;23.60;58.20
1700;DHT22;847;48.058;7.810;2023-06-14T10:08:36;23.60;58.50
1700;DHT22;847;48.058;7.810;2023-06-14T10:11:04;23.70;58.50
1700;DHT22;847;48.058;7.810;2023-06-14T10:13:34;23.80;57.60
1700;DHT22;847;48.058;7.810;2023-06-14T10:16:07;23.80;58.20
1700;DHT22;847;48.058;7.810;2023-06-14T10:18:43;24.00;59.20
1700;DHT22;847;48.058;7.810;2023-06-14T10:21:16;24.20;58.40
1700;DHT22;847;48.058;7.810;2023-06-14T10:23:46;24.20;58.30
1700;DHT22;847;48.058;7.810;2023-06-14T10:26:20;24.20;58.10
1700;DHT22;847;48.058;7.810;2023-06-14T10:29:00;24.30;57.50
1700;DHT22;847;48.058;7.810;2023-06-14T10:31:40;24.40;55.70
1700;DHT22;847;48.058;7.810;2023-06-14T10:34:08;24.30;56.50
1700;DHT22;847;48.058;7.810;2023-06-14T10:36:35;24.30;58.20
1700;DHT22;847;48.058;7.810;2023-06-14T10:39:05;24.50;55.90
1700;DHT22;847;48.058;7.810;2023-06-14T10:41:35;24.60;56.80
1700;DHT22;847;48.058;7.810;2023-06-14T10:47:26;24.60;55.40
1700;DHT22;847;48.058;7.810;2023-06-14T10:49:54;24.60;55.40
1700;DHT22;847;48.058;7.810;2023-06-14T10:52:23;24.70;55.90
1700;DHT22;847;48.058;7.810;2023-06-14T10:54:59;24.90;55.10
1700;DHT22;847;48.058;7.810;2023-06-14T10:57:26;25.00;55.80
1700;DHT22;847;48.058;7.810;2023-06-14T10:59:53;24.90;55.50
1700;DHT22;847;48.058;7.810;2023-06-14T11:05:27;25.00;52.90
1700;DHT22;847;48.058;7.810;2023-06-14T11:10:59;25.10;54.00
1700;DHT22;847;48.058;7.810;2023-06-14T11:13:26;25.00;53.90
1700;DHT22;847;48.058;7.810;2023-06-14T11:15:54;25.00;53.20
1700;DHT22;847;48.058;7.810;2023-06-14T11:18:24;25.00;54.30
1700;DHT22;847;48.058;7.810;2023-06-14T11:20:52;25.10;53.20
1700;DHT22;847;48.058;7.810;2023-06-14T11:23:21;25.20;53.30
1700;DHT22;847;48.058;7.810;2023-06-14T11:25:50;25.20;53.00
1700;DHT22;847;48.058;7.810;2023-06-14T11:28:17;25.20;53.60
1700;DHT22;847;48.058;7.810;2023-06-14T11:30:45;25.20;53.50
1700;DHT22;847;48.058;7.810;2023-06-14T11:33:16;25.20;54.60
1700;DHT22;847;48.058;7.810;2023-06-14T11:35:45;25.20;54.80
1700;DHT22;847;48.058;7.810;2023-06-14T11:38:12;25.30;55.30
1700;DHT22;847;48.058;7.810;2023-06-14T11:40:39;25.50;54.50
1700;DHT22;847;48.058;7.810;2023-06-14T11:43:05;25.50;53.30
1700;DHT22;847;48.058;7.810;2023-06-14T11:45:32;25.50;53.90
1700;DHT22;847;48.058;7.810;2023-06-14T11:47:59;25.60;52.30
1700;DHT22;847;48.058;7.810;2023-06-14T11:50:27;25.60;53.40
1700;DHT22;847;48.058;7.810;2023-06-14T11:52:56;25.50;52.20
1700;DHT22;847;48.058;7.810;2023-06-14T11:55:23;25.50;53.90
1700;DHT22;847;48.058;7.810;2023-06-14T11:57:50;25.60;54.10
1700;DHT22;847;48.058;7.810;2023-06-14T12:00:18;25.70;53.10
1700;DHT22;847;48.058;7.810;2023-06-14T12:02:52;25.80;53.60
1700;DHT22;847;48.058;7.810;2023-06-14T12:05:21;26.00;52.20
1700;DHT22;847;48.058;7.810;2023-06-14T12:07:48;26.00;52.70
1700;DHT22;847;48.058;7.810;2023-06-14T12:10:17;26.10;53.80
1700;DHT22;847;48.058;7.810;2023-06-14T12:12:44;26.20;51.70
1700;DHT22;847;48.058;7.810;2023-06-14T12:15:11;26.20;51.00
1700;DHT22;847;48.058;7.810;2023-06-14T12:17:38;26.30;50.50
1700;DHT22;847;48.058;7.810;2023-06-14T12:20:09;26.30;50.70
1700;DHT22;847;48.058;7.810;2023-06-14T12:22:50;26.30;50.50
1700;DHT22;847;48.058;7.810;2023-06-14T12:25:31;26.40;50.80
1700;DHT22;847;48.058;7.810;2023-06-14T12:27:59;26.60;51.00
1700;DHT22;847;48.058;7.810;2023-06-14T12:30:30;26.70;51.90
1700;DHT22;847;48.058;7.810;2023-06-14T12:32:56;26.90;50.80
1700;DHT22;847;48.058;7.810;2023-06-14T12:35:23;26.90;50.30
1700;DHT22;847;48.058;7.810;2023-06-14T12:37:50;26.90;50.30
1700;DHT22;847;48.058;7.810;2023-06-14T12:40:17;26.90;49.50
1700;DHT22;847;48.058;7.810;2023-06-14T12:42:45;26.90;50.50
1700;DHT22;847;48.058;7.810;2023-06-14T12:45:12;26.90;50.40
1700;DHT22;847;48.058;7.810;2023-06-14T12:47:39;26.80;49.20
1700;DHT22;847;48.058;7.810;2023-06-14T12:50:07;26.80;49.70
1700;DHT22;847;48.058;7.810;2023-06-14T12:52:34;26.80;49.50
1700;DHT22;847;48.058;7.810;2023-06-14T12:55:02;26.90;50.20
1700;DHT22;847;48.058;7.810;2023-06-14T12:57:29;26.90;50.90
1700;DHT22;847;48.058;7.810;2023-06-14T12:59:59;27.00;50.70
1700;DHT22;847;48.058;7.810;2023-06-14T13:02:25;27.00;50.60
1700;DHT22;847;48.058;7.810;2023-06-14T13:04:52;26.90;50.20
1700;DHT22;847;48.058;7.810;2023-06-14T13:07:19;26.90;51.00
1700;DHT22;847;48.058;7.810;2023-06-14T13:09:46;27.10;50.00
1700;DHT22;847;48.058;7.810;2023-06-14T13:12:12;27.30;49.70
1700;DHT22;847;48.058;7.810;2023-06-14T13:14:39;27.20;50.20
1700;DHT22;847;48.058;7.810;2023-06-14T13:17:09;27.30;50.30
1700;DHT22;847;48.058;7.810;2023-06-14T13:19:36;27.30;49.40
1700;DHT22;847;48.058;7.810;2023-06-14T13:22:03;27.20;50.90
1700;DHT22;847;48.058;7.810;2023-06-14T13:24:30;27.20;50.10
1700;DHT22;847;48.058;7.810;2023-06-14T13:26:58;27.10;50.70
1700;DHT22;847;48.058;7.810;2023-06-14T13:29:25;27.10;49.90
1700;DHT22;847;48.058;7.810;2023-06-14T13:31:53;27.10;50.30
1700;DHT22;847;48.058;7.810;2023-06-14T13:34:22;26.80;49.80
1700;DHT22;847;48.058;7.810;2023-06-14T13:36:49;26.70;50.80
1700;DHT22;847;48.058;7.810;2023-06-14T13:39:16;26.90;50.60
1700;DHT22;847;48.058;7.810;2023-06-14T13:41:43;26.90;50.20
1700;DHT22;847;48.058;7.810;2023-06-14T13:44:10;27.00;50.80
1700;DHT22;847;48.058;7.810;2023-06-14T13:46:39;26.90;50.50
1700;DHT22;847;48.058;7.810;2023-06-14T13:49:08;27.10;49.50
1700;DHT22;847;48.058;7.810;2023-06-14T13:51:37;27.00;49.90
1700;DHT22;847;48.058;7.810;2023-06-14T13:54:03;27.20;49.90
1700;DHT22;847;48.058;7.810;2023-06-14T13:56:30;27.30;49.40
1700;DHT22;847;48.058;7.810;2023-06-14T13:58:57;27.40;49.70
1700;DHT22;847;48.058;7.810;2023-06-14T14:01:25;27.40;48.60
1700;DHT22;847;48.058;7.810;2023-06-14T14:03:52;27.30;50.10
1700;DHT22;847;48.058;7.810;2023-06-14T14:06:18;27.10;50.20
1700;DHT22;847;48.058;7.810;2023-06-14T14:08:47;27.10;49.70
1700;DHT22;847;48.058;7.810;2023-06-14T14:11:13;27.00;50.20
1700;DHT22;847;48.058;7.810;2023-06-14T14:13:41;27.00;49.70
1700;DHT22;847;48.058;7.810;2023-06-14T14:16:08;27.10;49.30
1700;DHT22;847;48.058;7.810;2023-06-14T14:18:36;26.90;49.50
1700;DHT22;847;48.058;7.810;2023-06-14T14:21:03;27.10;50.70
1700;DHT22;847;48.058;7.810;2023-06-14T14:23:29;26.90;50.30
1700;DHT22;847;48.058;7.810;2023-06-14T14:25:58;26.70;49.90
1700;DHT22;847;48.058;7.810;2023-06-14T14:28:26;26.70;50.00
1700;DHT22;847;48.058;7.810;2023-06-14T14:30:53;26.70;49.80
1700;DHT22;847;48.058;7.810;2023-06-14T14:33:20;26.70;50.40
1700;DHT22;847;48.058;7.810;2023-06-14T14:35:47;26.70;51.10
1700;DHT22;847;48.058;7.810;2023-06-14T14:38:14;26.90;50.00
1700;DHT22;847;48.058;7.810;2023-06-14T14:40:41;27.00;49.50
1700;DHT22;847;48.058;7.810;2023-06-14T14:43:10;27.00;50.60
1700;DHT22;847;48.058;7.810;2023-06-14T14:45:37;26.70;50.30
1700;DHT22;847;48.058;7.810;2023-06-14T14:48:04;26.60;50.60
1700;DHT22;847;48.058;7.810;2023-06-14T14:50:32;26.50;51.00
1700;DHT22;847;48.058;7.810;2023-06-14T14:52:58;26.70;50.30
1700;DHT22;847;48.058;7.810;2023-06-14T14:55:25;27.00;50.30
1700;DHT22;847;48.058;7.810;2023-06-14T14:57:52;27.00;49.40
1700;DHT22;847;48.058;7.810;2023-06-14T15:00:20;27.10;50.40
1700;DHT22;847;48.058;7.810;2023-06-14T15:02:47;27.10;50.30
1700;DHT22;847;48.058;7.810;2023-06-14T15:05:14;27.20;50.10
1700;DHT22;847;48.058;7.810;2023-06-14T15:07:41;27.20;49.80
1700;DHT22;847;48.058;7.810;2023-06-14T15:10:08;27.30;51.60
1700;DHT22;847;48.058;7.810;2023-06-14T15:12:35;27.40;49.90
1700;DHT22;847;48.058;7.810;2023-06-14T15:15:02;27.40;49.40
1700;DHT22;847;48.058;7.810;2023-06-14T15:17:30;27.40;50.20
1700;DHT22;847;48.058;7.810;2023-06-14T15:19:57;27.40;49.00
1700;DHT22;847;48.058;7.810;2023-06-14T15:22:24;27.40;49.50
1700;DHT22;847;48.058;7.810;2023-06-14T15:24:50;27.20;49.90
1700;DHT22;847;48.058;7.810;2023-06-14T15:27:17;27.10;51.00
1700;DHT22;847;48.058;7.810;2023-06-14T15:29:44;27.10;50.70
1700;DHT22;847;48.058;7.810;2023-06-14T15:32:11;27.10;49.80
1700;DHT22;847;48.058;7.810;2023-06-14T15:34:41;27.00;49.60
1700;DHT22;847;48.058;7.810;2023-06-14T15:37:08;27.10;51.10
1700;DHT22;847;48.058;7.810;2023-06-14T15:39:35;27.00;50.00
1700;DHT22;847;48.058;7.810;2023-06-14T15:42:02;26.90;49.60
1700;DHT22;847;48.058;7.810;2023-06-14T15:44:29;26.90;49.30
1700;DHT22;847;48.058;7.810;2023-06-14T15:46:56;26.90;50.00
1700;DHT22;847;48.058;7.810;2023-06-14T15:49:23;26.70;49.60
1700;DHT22;847;48.058;7.810;2023-06-14T15:51:51;26.70;49.70
1700;DHT22;847;48.058;7.810;2023-06-14T15:54:17;26.80;50.00
1700;DHT22;847;48.058;7.810;2023-06-14T15:56:44;26.80;50.30
1700;DHT22;847;48.058;7.810;2023-06-14T15:59:11;26.90;50.40
1700;DHT22;847;48.058;7.810;2023-06-14T16:01:38;26.80;50.10
1700;DHT22;847;48.058;7.810;2023-06-14T16:04:04;26.90;50.60
1700;DHT22;847;48.058;7.810;2023-06-14T16:06:31;26.90;51.10
1700;DHT22;847;48.058;7.810;2023-06-14T16:08:59;26.90;51.20
1700;DHT22;847;48.058;7.810;2023-06-14T16:11:28;26.70;51.50
1700;DHT22;847;48.058;7.810;2023-06-14T16:13:55;26.70;51.50
1700;DHT22;847;48.058;7.810;2023-06-14T16:16:21;26.70;50.70
1700;DHT22;847;48.058;7.810;2023-06-14T16:18:48;26.90;51.20
1700;DHT22;847;48.058;7.810;2023-06-14T16:21:15;26.90;49.80
1700;DHT22;847;48.058;7.810;2023-06-14T16:23:42;26.90;50.00
1700;DHT22;847;48.058;7.810;2023-06-14T16:26:11;27.00;50.70
1700;DHT22;847;48.058;7.810;2023-06-14T16:28:39;26.70;50.40
1700;DHT22;847;48.058;7.810;2023-06-14T16:31:08;26.60;50.70